Time;durP1;ratioP1;P1;durP2;ratioP2;P2;SDS_P1;SDS_P2;PMS_P1;PMS_P2;Temp;Humidity;BMP_temperature;BMP_pressure;BME280_temperature;BME280_humidity;BME280_pressure;Samples;Min_cycle;Max_cycle;Signal;HPM_P1;HPM_P2
2022/02/08 00:01:30;;;;;;;7.85;1.23;;;;;;;;;;5018749;28;20034;-55
2022/02/08 00:03:57;;;;;;;7.32;1.35;;;;;;;;;;5019042;28;20124;-54
2022/02/08 00:08:56;;;;;;;7.38;1.60;;;;;;;;;;5021621;28;20033;-50
2022/02/08 00:11:24;;;;;;;9.40;1.50;;;;;;;;;;5022744;28;20033;-52
2022/02/08 00:13:51;;;;;;;14.82;1.77;;;;;;;;;;5024397;28;20029;-54
2022/02/08 00:16:18;;;;;;;9.65;1.70;;;;;;;;;;5026011;28;20537;-54
2022/02/08 00:18:45;;;;;;;8.88;1.95;;;;;;;;;;5031086;28;20032;-57
2022/02/08 00:21:12;;;;;;;11.05;1.83;;;;;;;;;;5026779;28;20080;-54
2022/02/08 00:23:39;;;;;;;9.40;1.70;;;;;;;;;;5024976;28;20040;-51
2022/02/08 00:26:06;;;;;;;12.35;1.80;;;;;;;;;;5026776;28;20029;-56
2022/02/08 00:28:33;;;;;;;15.85;2.30;;;;;;;;;;5031110;28;20057;-53
2022/02/08 00:31:01;;;;;;;14.93;2.13;;;;;;;;;;5029850;28;20061;-54
2022/02/08 00:33:28;;;;;;;19.10;2.13;;;;;;;;;;5032340;28;20111;-56
2022/02/08 00:35:55;;;;;;;14.82;2.05;;;;;;;;;;5018260;28;20555;-55
2022/02/08 00:38:22;;;;;;;15.68;2.22;;;;;;;;;;5025621;28;20049;-56
2022/02/08 00:40:50;;;;;;;21.13;2.58;;;;;;;;;;5024473;28;20097;-59
2022/02/08 00:43:23;;;;;;;13.75;2.42;;;;;;;;;;5019760;28;20046;-60
2022/02/08 00:46:05;;;;;;;17.13;2.17;;;;;;;;;;5023117;28;20160;-54
2022/02/08 00:48:40;;;;;;;17.80;2.10;;;;;;;;;;5018964;28;20026;-53
2022/02/08 00:51:07;;;;;;;18.35;2.55;;;;;;;;;;5021791;28;20068;-54
2022/02/08 00:53:35;;;;;;;11.15;2.08;;;;;;;;;;5013747;28;20040;-51
2022/02/08 00:56:02;;;;;;;13.95;2.05;;;;;;;;;;5013531;28;20029;-54
2022/02/08 00:58:32;;;;;;;16.13;2.08;;;;;;;;;;5016340;28;20755;-55
2022/02/08 01:00:59;;;;;;;21.52;2.15;;;;;;;;;;5013901;28;20512;-53
2022/02/08 01:03:26;;;;;;;13.30;1.58;;;;;;;;;;5014207;28;20029;-56
2022/02/08 01:06:03;;;;;;;13.50;1.85;;;;;;;;;;5014308;28;20055;-53
2022/02/08 01:08:33;;;;;;;15.70;1.90;;;;;;;;;;5013673;28;20408;-53
2022/02/08 01:11:00;;;;;;;10.82;2.10;;;;;;;;;;5014680;28;20381;-59
2022/02/08 01:13:27;;;;;;;47.50;5.22;;;;;;;;;;4995627;28;20029;-55
2022/02/08 01:15:55;;;;;;;14.57;1.63;;;;;;;;;;5014113;28;20032;-54
2022/02/08 01:18:23;;;;;;;17.38;2.85;;;;;;;;;;5014038;28;20029;-54
2022/02/08 01:20:51;;;;;;;17.63;3.08;;;;;;;;;;5013848;28;20169;-54
2022/02/08 01:23:19;;;;;;;19.02;2.90;;;;;;;;;;5015864;28;20503;-55
2022/02/08 01:25:51;;;;;;;20.02;6.97;;;;;;;;;;5004986;28;20036;-55
2022/02/08 01:28:32;;;;;;;9.40;4.10;;;;;;;;;;5033351;28;20036;-59
2022/02/08 01:31:02;;;;;;;16.13;4.20;;;;;;;;;;5033137;28;20092;-59
2022/02/08 01:38:59;;;;;;;12.05;2.83;;;;;;;;;;5032517;28;20518;-55
2022/02/08 01:41:52;;;;;;;13.73;2.75;;;;;;;;;;5032095;28;20471;-53
2022/02/08 01:51:51;;;;;;;9.40;3.40;;;;;;;;;;5016877;28;20025;-51
2022/02/08 01:54:18;;;;;;;12.07;4.00;;;;;;;;;;5016761;28;20125;-53
2022/02/08 01:56:45;;;;;;;8.80;3.20;;;;;;;;;;5015425;28;20029;-56
2022/02/08 01:59:12;;;;;;;10.55;2.90;;;;;;;;;;5015822;28;20075;-50
2022/02/08 02:01:39;;;;;;;13.20;3.47;;;;;;;;;;5016512;28;20049;-52
2022/02/08 02:04:06;;;;;;;11.07;3.33;;;;;;;;;;5015547;28;20072;-51
2022/02/08 02:06:33;;;;;;;14.52;4.07;;;;;;;;;;5015704;28;20025;-50
2022/02/08 02:09:00;;;;;;;10.70;3.33;;;;;;;;;;5016568;28;20034;-53
2022/02/08 02:11:27;;;;;;;7.90;2.97;;;;;;;;;;5015286;28;20092;-55
2022/02/08 02:13:56;;;;;;;8.18;3.20;;;;;;;;;;5015866;28;20033;-56
2022/02/08 02:16:36;;;;;;;9.15;3.33;;;;;;;;;;5025488;28;20031;-53
2022/02/08 02:19:03;;;;;;;9.77;3.75;;;;;;;;;;5025631;28;20025;-50
2022/02/08 02:21:30;;;;;;;8.68;3.28;;;;;;;;;;5026118;28;20032;-50
2022/02/08 02:23:57;;;;;;;9.07;3.20;;;;;;;;;;5024392;28;20026;-52
2022/02/08 02:26:24;;;;;;;11.68;4.53;;;;;;;;;;5025925;28;20024;-53
2022/02/08 02:28:51;;;;;;;16.50;5.93;;;;;;;;;;5026471;28;20400;-55
2022/02/08 02:31:21;;;;;;;12.57;4.47;;;;;;;;;;5007229;28;20025;-55
2022/02/08 02:33:49;;;;;;;15.15;4.30;;;;;;;;;;5013480;28;20038;-55
2022/02/08 02:36:16;;;;;;;9.05;3.90;;;;;;;;;;5012401;28;20100;-53
2022/02/08 02:38:43;;;;;;;15.38;3.97;;;;;;;;;;5012041;28;20058;-57
2022/02/08 02:41:12;;;;;;;12.73;3.58;;;;;;;;;;5012028;28;20029;-53
2022/02/08 02:43:40;;;;;;;14.10;3.50;;;;;;;;;;5011811;28;20034;-55
2022/02/08 02:46:07;;;;;;;9.38;3.10;;;;;;;;;;5012886;28;20034;-52
2022/02/08 02:48:38;;;;;;;9.27;3.28;;;;;;;;;;5012525;28;20030;-54
2022/02/08 02:51:05;;;;;;;9.30;3.72;;;;;;;;;;4995661;28;20096;-55
2022/02/08 02:53:32;;;;;;;7.45;3.17;;;;;;;;;;5012816;28;20036;-54
2022/02/08 02:55:59;;;;;;;8.30;2.80;;;;;;;;;;4994387;28;20033;-50
2022/02/08 02:58:39;;;;;;;11.27;3.05;;;;;;;;;;5012564;28;20026;-55
2022/02/08 03:01:20;;;;;;;9.25;2.95;;;;;;;;;;5012136;28;20492;-55
2022/02/08 03:19:55;;;;;;;6.93;2.22;;;;;;;;;;5011948;28;20037;-53
2022/02/08 03:22:22;;;;;;;10.52;1.90;;;;;;;;;;5011827;28;20069;-53
2022/02/08 03:24:48;;;;;;;6.95;2.10;;;;;;;;;;5011837;28;20683;-51
2022/02/08 03:27:16;;;;;;;6.35;1.80;;;;;;;;;;5011941;28;20492;-51
2022/02/08 03:29:45;;;;;;;6.03;1.52;;;;;;;;;;5011775;28;20014;-50
2022/02/08 03:32:14;;;;;;;6.57;2.10;;;;;;;;;;5011202;28;20045;-52
2022/02/08 03:34:41;;;;;;;7.20;2.05;;;;;;;;;;5011851;28;20069;-53
2022/02/08 03:37:08;;;;;;;5.53;1.95;;;;;;;;;;5011700;28;20022;-50
2022/02/08 03:39:42;;;;;;;7.45;1.90;;;;;;;;;;5011015;28;20516;-53
2022/02/08 03:42:17;;;;;;;5.82;1.85;;;;;;;;;;5011768;28;20519;-51
2022/02/08 03:44:47;;;;;;;8.43;2.03;;;;;;;;;;5011056;28;20061;-57
2022/02/08 03:47:15;;;;;;;11.82;1.75;;;;;;;;;;5011367;28;20083;-54
2022/02/08 03:49:43;;;;;;;8.10;1.67;;;;;;;;;;5011662;28;20022;-56
2022/02/08 03:52:10;;;;;;;10.20;1.77;;;;;;;;;;5011017;28;20436;-55
2022/02/08 03:54:37;;;;;;;7.97;1.80;;;;;;;;;;5011474;28;20030;-56
2022/02/08 03:57:07;;;;;;;6.22;1.40;;;;;;;;;;5011339;28;20041;-55
2022/02/08 03:59:36;;;;;;;4.95;1.48;;;;;;;;;;5011400;28;20041;-52
2022/02/08 04:04:36;;;;;;;13.15;1.90;;;;;;;;;;5011595;28;20384;-51
2022/02/08 04:07:12;;;;;;;6.30;1.48;;;;;;;;;;5010897;28;20030;-51
2022/02/08 04:09:39;;;;;;;5.72;1.33;;;;;;;;;;5011280;28;20025;-53
2022/02/08 04:12:14;;;;;;;8.75;1.55;;;;;;;;;;5011067;28;20116;-53
2022/02/08 04:14:55;;;;;;;6.78;1.70;;;;;;;;;;5011168;28;20072;-49
2022/02/08 04:41:30;;;;;;;3.97;1.25;;;;;;;;;;4990122;28;20485;-52
2022/02/08 04:46:49;;;;;;;4.75;1.45;;;;;;;;;;5011004;28;20435;-55
2022/02/08 04:49:19;;;;;;;7.70;1.67;;;;;;;;;;5010890;28;20029;-54
2022/02/08 04:51:51;;;;;;;4.95;1.67;;;;;;;;;;5010755;28;20472;-50
2022/02/08 04:54:29;;;;;;;4.78;1.38;;;;;;;;;;5010733;28;20093;-50
2022/02/08 05:27:37;;;;;;;6.07;1.20;;;;;;;;;;5013839;28;20041;-51
2022/02/08 05:34:06;;;;;;;4.13;1.15;;;;;;;;;;5013458;28;20480;-53
2022/02/08 05:35:42;;;;;;;5.93;1.30;;;;;;;;;;5014292;28;20068;-52
2022/02/08 05:43:48;;;;;;;3.75;1.25;;;;;;;;;;5013639;28;20030;-54
2022/02/08 05:48:49;;;;;;;3.80;1.02;;;;;;;;;;5013786;28;20022;-52
2022/02/08 05:51:22;;;;;;;7.40;1.42;;;;;;;;;;5012969;28;20092;-53
2022/02/08 05:53:49;;;;;;;3.30;0.90;;;;;;;;;;5013696;28;20041;-56
2022/02/08 05:56:17;;;;;;;6.28;1.20;;;;;;;;;;5013358;28;20117;-49
2022/02/08 05:58:46;;;;;;;5.18;1.20;;;;;;;;;;5013053;28;20030;-49
2022/02/08 06:01:14;;;;;;;3.53;1.17;;;;;;;;;;5013547;28;20395;-53
2022/02/08 06:03:41;;;;;;;5.95;1.10;;;;;;;;;;5012964;28;20034;-54
2022/02/08 06:06:08;;;;;;;4.72;0.98;;;;;;;;;;5012856;28;20385;-52
2022/02/08 06:08:35;;;;;;;3.70;1.20;;;;;;;;;;5013457;28;20029;-56
2022/02/08 06:11:12;;;;;;;3.20;1.13;;;;;;;;;;5013050;28;20361;-54
2022/02/08 06:13:41;;;;;;;3.97;0.90;;;;;;;;;;4994881;28;20120;-54
2022/02/08 06:16:15;;;;;;;4.65;1.30;;;;;;;;;;5012122;28;20549;-52
2022/02/08 06:18:42;;;;;;;3.83;1.08;;;;;;;;;;5012661;28;20113;-56
2022/02/08 06:21:09;;;;;;;5.05;1.17;;;;;;;;;;5012799;28;20026;-54
2022/02/08 06:23:36;;;;;;;4.45;1.10;;;;;;;;;;5013160;28;20046;-56
2022/02/08 06:26:03;;;;;;;4.03;1.05;;;;;;;;;;5012582;28;20030;-55
2022/02/08 06:28:31;;;;;;;5.65;1.10;;;;;;;;;;5012884;28;20026;-50
2022/02/08 06:30:57;;;;;;;6.28;1.35;;;;;;;;;;5012697;28;20026;-53
2022/02/08 06:33:25;;;;;;;5.90;1.40;;;;;;;;;;4994860;28;20049;-52
2022/02/08 06:35:52;;;;;;;3.78;1.08;;;;;;;;;;5012633;28;20104;-51
2022/02/08 06:38:20;;;;;;;2.22;0.80;;;;;;;;;;5012507;28;20104;-52
2022/02/08 06:40:51;;;;;;;3.63;0.95;;;;;;;;;;5114620;23;20017;-41
2022/02/08 06:43:20;;;;;;;6.00;1.08;;;;;;;;;;5012230;28;20033;-43
2022/02/08 06:45:47;;;;;;;4.15;1.38;;;;;;;;;;5011687;28;20479;-44
2022/02/08 06:48:14;;;;;;;3.97;0.88;;;;;;;;;;5012502;28;20068;-46
2022/02/08 06:50:41;;;;;;;3.92;0.95;;;;;;;;;;5012101;28;20022;-43
2022/02/08 06:53:08;;;;;;;5.00;1.17;;;;;;;;;;5012520;28;20038;-46
2022/02/08 06:55:35;;;;;;;4.25;1.23;;;;;;;;;;5011680;28;20018;-45
2022/02/08 06:58:07;;;;;;;3.47;0.85;;;;;;;;;;5012549;28;20395;-43
2022/02/08 07:00:37;;;;;;;3.60;1.00;;;;;;;;;;5012055;28;20030;-44
2022/02/08 07:03:05;;;;;;;3.90;1.20;;;;;;;;;;5011541;28;20100;-44
2022/02/08 07:05:32;;;;;;;2.17;0.95;;;;;;;;;;5011669;28;20298;-45
2022/02/08 07:07:59;;;;;;;3.00;0.90;;;;;;;;;;5012502;28;20034;-44
2022/02/08 07:10:28;;;;;;;7.40;1.25;;;;;;;;;;5012688;28;20033;-44
2022/02/08 07:12:55;;;;;;;3.63;0.82;;;;;;;;;;5012409;28;20383;-45
2022/02/08 07:15:22;;;;;;;2.00;0.90;;;;;;;;;;5012035;28;20029;-43
2022/02/08 07:17:50;;;;;;;2.28;0.77;;;;;;;;;;5012723;28;20030;-46
2022/02/08 07:20:17;;;;;;;3.42;0.98;;;;;;;;;;5012258;28;20025;-44
2022/02/08 07:22:44;;;;;;;3.05;0.90;;;;;;;;;;5012120;28;20076;-44
2022/02/08 07:25:11;;;;;;;3.67;1.30;;;;;;;;;;5012053;28;20026;-43
2022/02/08 07:27:38;;;;;;;5.22;1.20;;;;;;;;;;5011464;28;20041;-43
2022/02/08 07:30:13;;;;;;;4.88;1.15;;;;;;;;;;5012560;28;20085;-46
2022/02/08 07:32:41;;;;;;;5.10;1.20;;;;;;;;;;5011554;28;20418;-44
2022/02/08 07:38:04;;;;;;;5.63;1.35;;;;;;;;;;5011871;28;20034;-45
2022/02/08 07:40:39;;;;;;;2.60;0.80;;;;;;;;;;5011238;28;20395;-46
2022/02/08 07:43:06;;;;;;;3.50;0.80;;;;;;;;;;4973264;28;20404;-44
2022/02/08 07:45:33;;;;;;;3.92;1.42;;;;;;;;;;4972148;28;20030;-45
2022/02/08 07:48:00;;;;;;;2.33;0.98;;;;;;;;;;4973241;28;20062;-45
2022/02/08 07:50:28;;;;;;;2.65;1.00;;;;;;;;;;4972484;28;20025;-43
2022/02/08 07:52:55;;;;;;;5.32;1.10;;;;;;;;;;4972840;28;20027;-43
2022/02/08 07:55:23;;;;;;;4.82;1.17;;;;;;;;;;4972987;28;20041;-43
2022/02/08 07:57:50;;;;;;;5.32;1.17;;;;;;;;;;4972235;28;20086;-43
2022/02/08 08:00:18;;;;;;;4.32;1.15;;;;;;;;;;4973018;28;20027;-44
2022/02/08 08:02:45;;;;;;;4.72;1.05;;;;;;;;;;4972451;28;20027;-44
2022/02/08 08:05:12;;;;;;;5.45;1.65;;;;;;;;;;4972886;28;20038;-43
2022/02/08 08:07:39;;;;;;;3.08;0.88;;;;;;;;;;4972711;28;20110;-44
2022/02/08 08:10:07;;;;;;;4.43;1.25;;;;;;;;;;4972491;28;20034;-43
2022/02/08 08:12:36;;;;;;;5.10;0.80;;;;;;;;;;4972729;28;20033;-46
2022/02/08 08:15:12;;;;;;;5.35;1.15;;;;;;;;;;4972082;28;20042;-43
2022/02/08 08:17:55;;;;;;;4.70;1.10;;;;;;;;;;4972724;28;20338;-44
2022/02/08 08:20:21;;;;;;;;;;;;;;;;;;4973256;28;20101;-46
2022/02/08 08:22:48;;;;;;;3.03;0.88;;;;;;;;;;4972303;28;19906;-46
2022/02/08 08:25:15;;;;;;;2.83;1.08;;;;;;;;;;4971771;28;20041;-44
2022/02/08 08:27:42;;;;;;;5.72;1.00;;;;;;;;;;4972174;28;20035;-47
2022/02/08 08:30:10;;;;;;;4.18;1.25;;;;;;;;;;4972789;28;20608;-43
2022/02/08 08:32:39;;;;;;;8.18;1.40;;;;;;;;;;4972383;28;20399;-43
2022/02/08 08:35:07;;;;;;;6.43;0.88;;;;;;;;;;4972162;28;20484;-43
2022/02/08 08:37:40;;;;;;;5.53;1.10;;;;;;;;;;4972753;28;20102;-46
2022/02/08 08:40:17;;;;;;;4.63;1.15;;;;;;;;;;4975534;28;20096;-45
2022/02/08 08:43:35;;;;;;;4.28;1.08;;;;;;;;;;5009412;28;20065;-43
2022/02/08 08:48:41;;;;;;;5.25;1.33;;;;;;;;;;5014291;28;20034;-44
2022/02/08 08:53:54;;;;;;;4.60;1.08;;;;;;;;;;5013617;28;20081;-45
2022/02/08 08:56:21;;;;;;;3.83;0.88;;;;;;;;;;4995963;28;20513;-44
2022/02/08 08:58:48;;;;;;;5.00;1.00;;;;;;;;;;5013604;28;20030;-43
2022/02/08 09:01:15;;;;;;;6.55;1.27;;;;;;;;;;5013546;28;20030;-43
2022/02/08 09:03:47;;;;;;;8.27;1.15;;;;;;;;;;4996600;28;20399;-45
2022/02/08 09:06:14;;;;;;;2.83;0.95;;;;;;;;;;5012064;28;20601;-47
2022/02/08 09:08:43;;;;;;;6.40;0.93;;;;;;;;;;4996539;28;20392;-44
2022/02/08 09:11:32;;;;;;;7.68;1.05;;;;;;;;;;5013913;28;20103;-43
2022/02/08 09:14:13;;;;;;;8.45;1.35;;;;;;;;;;5014709;28;20081;-47
2022/02/08 09:25:00;;;;;;;9.98;1.48;;;;;;;;;;5013475;28;20096;-43
2022/02/08 09:30:10;;;;;;;7.15;1.20;;;;;;;;;;5014054;28;20048;-46
2022/02/08 09:32:50;;;;;;;13.52;1.48;;;;;;;;;;5014362;28;20065;-43
2022/02/08 09:35:18;;;;;;;9.00;1.63;;;;;;;;;;5014940;28;20038;-43
2022/02/08 09:37:45;;;;;;;9.20;1.30;;;;;;;;;;5015852;28;20057;-43
2022/02/08 09:40:13;;;;;;;9.18;1.40;;;;;;;;;;5014514;28;20057;-51
2022/02/08 09:42:42;;;;;;;11.65;1.35;;;;;;;;;;5013235;28;20046;-44
2022/02/08 09:45:15;;;;;;;9.15;1.45;;;;;;;;;;5014059;28;20042;-43
2022/02/08 09:47:54;;;;;;;7.13;1.30;;;;;;;;;;5013762;28;20026;-45
2022/02/08 09:50:26;;;;;;;8.13;1.63;;;;;;;;;;5012882;28;20042;-47
2022/02/08 09:52:56;;;;;;;16.13;2.35;;;;;;;;;;5013851;28;20087;-43
2022/02/08 09:55:24;;;;;;;12.93;3.03;;;;;;;;;;5012994;28;20044;-44
2022/02/08 09:57:51;;;;;;;22.48;5.05;;;;;;;;;;5013893;28;20109;-47
2022/02/08 10:00:19;;;;;;;26.88;7.57;;;;;;;;;;5013683;28;20038;-47
2022/02/08 10:02:46;;;;;;;36.88;12.15;;;;;;;;;;5013090;28;20471;-43
2022/02/08 10:05:14;;;;;;;48.75;16.02;;;;;;;;;;5013725;28;20171;-45
2022/02/08 10:07:41;;;;;;;58.25;19.20;;;;;;;;;;5012953;28;20403;-44
2022/02/08 10:10:09;;;;;;;73.22;23.38;;;;;;;;;;5013398;28;20030;-49
2022/02/08 10:12:59;;;;;;;71.32;22.13;;;;;;;;;;5013717;28;20438;-44
2022/02/08 10:23:36;;;;;;;61.65;18.55;;;;;;;;;;5012639;28;20140;-46
2022/02/08 10:26:07;;;;;;;57.50;18.73;;;;;;;;;;5013430;28;20042;-43
2022/02/08 10:28:53;;;;;;;81.32;18.45;;;;;;;;;;5013083;28;20092;-45
2022/02/08 10:31:59;;;;;;;66.50;14.77;;;;;;;;;;5012976;28;20128;-45
2022/02/08 10:40:07;;;;;;;16.27;2.30;;;;;;;;;;5013626;28;20041;-41
2022/02/08 10:42:34;;;;;;;16.75;2.58;;;;;;;;;;5011310;28;20103;-43
2022/02/08 10:45:02;;;;;;;8.90;2.00;;;;;;;;;;5012877;28;20152;-43
2022/02/08 10:47:35;;;;;;;4.93;1.40;;;;;;;;;;5012369;28;20037;-44
2022/02/08 10:50:03;;;;;;;14.15;2.13;;;;;;;;;;5012375;28;20034;-48
2022/02/08 10:52:30;;;;;;;12.52;1.90;;;;;;;;;;5013181;28;20025;-44
2022/02/08 10:55:05;;;;;;;6.75;1.60;;;;;;;;;;5012250;28;20381;-43
2022/02/08 10:57:44;;;;;;;9.23;1.50;;;;;;;;;;5012703;28;20030;-41
2022/02/08 11:00:11;;;;;;;11.15;1.80;;;;;;;;;;5011919;28;20035;-41
2022/02/08 11:02:46;;;;;;;13.60;2.20;;;;;;;;;;5011639;28;20026;-42
2022/02/08 11:05:27;;;;;;;14.57;1.95;;;;;;;;;;5012070;28;20034;-46
2022/02/08 11:08:11;;;;;;;41.30;2.63;;;;;;;;;;5012155;28;20042;-47
2022/02/08 11:16:06;;;;;;;19.58;2.25;;;;;;;;;;5032444;28;20036;-43
2022/02/08 11:18:57;;;;;;;25.85;2.30;;;;;;;;;;5031717;28;20033;-43
2022/02/08 11:21:41;;;;;;;49.22;4.97;;;;;;;;;;5032372;28;20037;-45
2022/02/08 11:24:41;;;;;;;103.35;7.20;;;;;;;;;;5030681;28;20052;-40
2022/02/08 11:27:18;;;;;;;41.47;3.33;;;;;;;;;;5031433;28;20041;-46
2022/02/08 11:30:01;;;;;;;21.20;2.22;;;;;;;;;;5030323;28;20025;-46
2022/02/08 11:32:51;;;;;;;64.43;3.88;;;;;;;;;;5030553;28;20725;-44
2022/02/08 11:46:32;;;;;;;34.70;3.20;;;;;;;;;;5030496;28;20087;-43
2022/02/08 11:52:03;;;;;;;18.40;2.00;;;;;;;;;;5030704;28;20029;-46
2022/02/08 12:07:24;;;;;;;27.02;2.45;;;;;;;;;;5030496;28;20029;-47
2022/02/08 12:54:23;;;;;;;13.75;1.42;;;;;;;;;;5035191;28;20534;-46
2022/02/08 12:57:11;;;;;;;22.67;2.35;;;;;;;;;;5034447;28;20048;-48
2022/02/08 12:59:50;;;;;;;18.05;2.40;;;;;;;;;;5034313;28;20030;-45
2022/02/08 13:05:40;;;;;;;12.73;1.92;;;;;;;;;;5034047;28;20042;-46
2022/02/08 14:05:56;;;;;;;26.40;2.67;;;;;;;;;;5032849;28;20537;-47
2022/02/08 14:11:42;;;;;;;16.00;2.08;;;;;;;;;;5031663;28;20052;-45
2022/02/08 14:16:59;;;;;;;26.50;2.63;;;;;;;;;;5032182;28;20544;-47
2022/02/08 14:19:33;;;;;;;31.15;2.78;;;;;;;;;;5032257;28;20025;-45
2022/02/08 14:22:14;;;;;;;87.07;6.28;;;;;;;;;;5031257;28;20033;-46
2022/02/08 14:30:05;;;;;;;27.17;3.40;;;;;;;;;;5031928;28;20558;-49
2022/02/08 15:09:56;;;;;;;42.38;4.22;;;;;;;;;;5030559;28;20035;-35
2022/02/08 15:12:25;;;;;;;35.88;4.53;;;;;;;;;;5031290;28;20061;-34
2022/02/08 15:14:59;;;;;;;38.00;3.65;;;;;;;;;;5030485;28;20052;-36
2022/02/08 15:17:26;;;;;;;29.15;3.30;;;;;;;;;;5030950;28;20064;-38
2022/02/08 15:19:54;;;;;;;38.75;4.68;;;;;;;;;;5031122;28;20025;-39
2022/02/08 15:22:22;;;;;;;39.85;4.40;;;;;;;;;;5012173;28;20041;-39
2022/02/08 15:24:49;;;;;;;47.65;5.03;;;;;;;;;;5027634;28;20785;-40
2022/02/08 15:27:16;;;;;;;29.83;3.85;;;;;;;;;;5023730;28;20439;-38
2022/02/08 15:29:43;;;;;;;27.55;3.63;;;;;;;;;;5027534;28;20514;-42
2022/02/08 15:32:15;;;;;;;30.83;3.38;;;;;;;;;;5024218;28;20037;-40
2022/02/08 15:34:45;;;;;;;25.95;3.13;;;;;;;;;;5024766;28;20076;-37
2022/02/08 15:37:13;;;;;;;25.40;3.22;;;;;;;;;;5018127;28;20099;-40
2022/02/08 15:39:40;;;;;;;24.63;3.13;;;;;;;;;;5012744;28;20037;-43
2022/02/08 15:42:08;;;;;;;25.20;3.33;;;;;;;;;;5004743;28;20052;-41
2022/02/08 15:44:35;;;;;;;31.63;3.30;;;;;;;;;;5014120;28;20057;-43
2022/02/08 15:47:07;;;;;;;34.03;3.53;;;;;;;;;;5009464;28;20127;-42
2022/02/08 15:49:40;;;;;;;26.67;3.92;;;;;;;;;;5010659;28;20048;-42
2022/02/08 15:53:11;;;;;;;35.08;5.22;;;;;;;;;;5010922;28;20045;-43
2022/02/08 15:54:59;;;;;;;41.60;8.43;;;;;;;;;;5000082;28;20167;-40
2022/02/08 16:00:50;;;;;;;44.97;14.30;;;;;;;;;;4969781;28;20050;-41
2022/02/08 16:08:53;;;;;;;44.70;16.17;;;;;;;;;;5008393;28;21323;-40
2022/02/08 16:16:56;;;;;;;40.60;16.83;;;;;;;;;;5008922;28;20579;-38
2022/02/08 16:22:25;;;;;;;52.60;21.38;;;;;;;;;;5010413;28;20072;-36
2022/02/08 16:28:01;;;;;;;46.95;19.42;;;;;;;;;;5008962;28;21044;-34
2022/02/08 16:59:35;;;;;;;32.25;10.50;;;;;;;;;;5010496;28;20048;-36
2022/02/08 17:02:05;;;;;;;33.85;11.45;;;;;;;;;;5012252;28;20087;-35
2022/02/08 17:04:32;;;;;;;34.90;10.15;;;;;;;;;;5015989;28;20034;-36
2022/02/08 17:07:00;;;;;;;33.67;10.05;;;;;;;;;;5008678;28;20037;-37
2022/02/08 17:12:08;;;;;;;31.50;10.15;;;;;;;;;;5007291;28;20041;-36
2022/02/08 17:15:09;;;;;;;21.58;9.50;;;;;;;;;;5016819;28;20052;-35
2022/02/08 17:47:43;;;;;;;25.02;7.57;;;;;;;;;;5011199;28;20053;-35
2022/02/08 17:50:11;;;;;;;21.45;6.82;;;;;;;;;;5009980;28;20029;-35
2022/02/08 17:52:40;;;;;;;21.77;7.18;;;;;;;;;;5008688;28;20045;-36
2022/02/08 17:55:07;;;;;;;25.05;7.75;;;;;;;;;;5009707;28;20045;-36
2022/02/08 17:57:35;;;;;;;27.27;7.30;;;;;;;;;;5011972;28;20040;-37
2022/02/08 18:00:02;;;;;;;21.73;6.20;;;;;;;;;;5012708;28;20126;-38
2022/02/08 18:02:29;;;;;;;26.80;6.80;;;;;;;;;;5012114;28;20071;-35
2022/02/08 18:04:59;;;;;;;20.92;6.50;;;;;;;;;;5006684;28;20107;-38
2022/02/08 18:07:27;;;;;;;21.45;6.45;;;;;;;;;;5013506;28;20037;-37
2022/02/08 18:09:55;;;;;;;21.85;6.35;;;;;;;;;;5007852;28;20048;-37
2022/02/08 18:12:25;;;;;;;21.92;6.32;;;;;;;;;;5009373;28;20715;-35
2022/02/08 18:15:03;;;;;;;26.13;6.57;;;;;;;;;;5007644;28;20066;-35
2022/02/08 18:17:38;;;;;;;18.65;5.72;;;;;;;;;;5010761;28;20106;-35
2022/02/08 18:23:05;;;;;;;19.30;6.38;;;;;;;;;;5012335;28;20077;-36
2022/02/08 19:03:20;;;;;;;19.92;4.95;;;;;;;;;;5007622;28;20404;-36
2022/02/08 19:23:52;;;;;;;39.28;6.63;;;;;;;;;;5011151;28;20053;-37
2022/02/08 19:26:23;;;;;;;36.35;6.13;;;;;;;;;;5011933;28;21147;-34
2022/02/08 19:28:51;;;;;;;29.90;5.10;;;;;;;;;;4991367;28;20049;-33
2022/02/08 19:31:20;;;;;;;48.13;6.13;;;;;;;;;;5009493;28;20103;-35
2022/02/08 19:33:47;;;;;;;32.50;5.78;;;;;;;;;;5009811;28;20041;-36
2022/02/08 19:36:15;;;;;;;33.30;5.68;;;;;;;;;;5011057;28;20037;-32
2022/02/08 19:38:42;;;;;;;42.67;5.80;;;;;;;;;;5010576;28;20608;-34
2022/02/08 19:41:09;;;;;;;28.60;4.88;;;;;;;;;;5006314;28;20045;-36
2022/02/08 19:43:36;;;;;;;28.92;5.40;;;;;;;;;;5011582;28;20037;-34
2022/02/08 19:46:03;;;;;;;35.35;5.40;;;;;;;;;;5010967;28;20068;-35
2022/02/08 19:48:30;;;;;;;26.90;4.65;;;;;;;;;;5007622;28;20045;-37
2022/02/08 19:50:57;;;;;;;35.45;5.80;;;;;;;;;;5005344;28;20132;-34
2022/02/08 19:53:24;;;;;;;31.48;5.47;;;;;;;;;;5010485;28;20037;-39
2022/02/08 19:56:06;;;;;;;31.77;5.43;;;;;;;;;;5005721;28;20040;-38
2022/02/08 19:58:33;;;;;;;37.80;5.38;;;;;;;;;;5010005;28;20103;-39
2022/02/08 20:01:09;;;;;;;28.05;5.57;;;;;;;;;;5004310;28;20042;-36
2022/02/08 20:03:43;;;;;;;39.22;6.13;;;;;;;;;;5008924;28;20041;-41
2022/02/08 20:06:10;;;;;;;38.97;5.53;;;;;;;;;;5009480;28;20034;-38
2022/02/08 20:08:37;;;;;;;25.45;5.28;;;;;;;;;;5013539;28;20662;-43
2022/02/08 20:11:04;;;;;;;36.70;5.78;;;;;;;;;;5024889;28;20048;-43
2022/02/08 20:13:32;;;;;;;32.78;5.22;;;;;;;;;;5028146;28;20032;-42
2022/02/08 20:16:00;;;;;;;24.38;5.05;;;;;;;;;;5026806;28;20053;-46
2022/02/08 20:18:29;;;;;;;31.88;5.60;;;;;;;;;;5024198;28;20037;-45
2022/02/08 20:20:57;;;;;;;27.80;5.05;;;;;;;;;;5024835;28;20037;-44
2022/02/08 20:23:25;;;;;;;29.02;4.90;;;;;;;;;;5027108;28;20029;-44
2022/02/08 20:25:55;;;;;;;40.75;5.93;;;;;;;;;;5028328;28;20029;-47
2022/02/08 20:28:35;;;;;;;20.55;4.25;;;;;;;;;;5023926;28;20088;-39
2022/02/08 20:31:02;;;;;;;27.25;5.95;;;;;;;;;;5028307;28;20049;-37
2022/02/08 20:33:29;;;;;;;19.70;4.50;;;;;;;;;;5027355;28;20032;-36
2022/02/08 20:35:57;;;;;;;31.38;5.57;;;;;;;;;;5032294;28;20113;-35
2022/02/08 20:38:24;;;;;;;25.25;5.20;;;;;;;;;;5028047;28;20482;-39
2022/02/08 20:40:53;;;;;;;28.63;5.38;;;;;;;;;;5024788;28;20056;-35
2022/02/08 20:43:21;;;;;;;26.75;4.22;;;;;;;;;;5018702;28;20056;-38
2022/02/08 20:45:49;;;;;;;27.77;5.32;;;;;;;;;;5002191;28;20041;-39
2022/02/08 20:48:16;;;;;;;25.20;4.60;;;;;;;;;;5016653;28;20040;-42
2022/02/08 20:50:46;;;;;;;31.05;5.22;;;;;;;;;;5029705;28;20030;-37
2022/02/08 20:53:18;;;;;;;27.00;4.75;;;;;;;;;;5028939;28;20041;-40
2022/02/08 20:55:49;;;;;;;30.40;5.35;;;;;;;;;;5013083;28;20056;-44
2022/02/08 21:00:44;;;;;;;28.08;4.82;;;;;;;;;;5029187;28;20033;-42
2022/02/08 21:06:13;;;;;;;33.13;5.00;;;;;;;;;;5031373;28;20496;-42
2022/02/08 21:08:40;;;;;;;23.40;4.68;;;;;;;;;;5026539;28;20049;-44
2022/02/08 21:11:07;;;;;;;27.45;4.00;;;;;;;;;;5032508;28;20033;-42
2022/02/08 21:16:09;;;;;;;25.88;4.63;;;;;;;;;;5031986;28;20085;-45
2022/02/08 21:18:36;;;;;;;18.75;3.40;;;;;;;;;;5025853;28;20356;-44
2022/02/08 21:21:04;;;;;;;23.88;4.82;;;;;;;;;;5031804;28;20033;-43
2022/02/08 21:23:31;;;;;;;25.13;4.25;;;;;;;;;;5032548;28;20034;-43
2022/02/08 21:26:01;;;;;;;21.08;4.05;;;;;;;;;;5031715;28;20032;-43
2022/02/08 21:49:40;;;;;;;16.48;3.70;;;;;;;;;;5025823;28;20041;-43
2022/02/08 21:52:23;;;;;;;15.07;3.85;;;;;;;;;;5031703;28;20077;-43
2022/02/08 21:54:51;;;;;;;18.08;3.67;;;;;;;;;;5030711;28;20138;-44
2022/02/08 21:57:21;;;;;;;9.95;2.55;;;;;;;;;;5031849;28;20392;-43
2022/02/08 21:59:49;;;;;;;17.67;3.40;;;;;;;;;;5025503;28;20116;-43
2022/02/08 22:02:16;;;;;;;16.05;2.60;;;;;;;;;;5032045;28;20029;-43
2022/02/08 22:04:43;;;;;;;19.10;3.63;;;;;;;;;;5031805;28;20456;-44
2022/02/08 22:07:14;;;;;;;17.17;2.90;;;;;;;;;;5030819;28;20111;-45
2022/02/08 22:09:43;;;;;;;12.80;3.00;;;;;;;;;;5026433;28;20037;-44
2022/02/08 22:23:23;;;;;;;13.65;2.58;;;;;;;;;;5030032;28;20045;-44
2022/02/08 22:26:12;;;;;;;11.85;2.42;;;;;;;;;;5028092;28;20033;-45
2022/02/08 22:31:12;;;;;;;11.65;2.70;;;;;;;;;;5023564;28;20045;-43
2022/02/08 22:33:46;;;;;;;16.60;3.13;;;;;;;;;;5029819;28;20472;-44
2022/02/08 22:36:24;;;;;;;11.70;2.55;;;;;;;;;;5030068;28;20648;-45
2022/02/08 22:38:57;;;;;;;10.30;2.50;;;;;;;;;;5029880;28;20548;-44
2022/02/08 22:41:40;;;;;;;14.82;2.40;;;;;;;;;;5025360;28;20053;-44
2022/02/08 22:44:18;;;;;;;12.05;2.45;;;;;;;;;;5029455;28;20044;-43
2022/02/08 22:46:49;;;;;;;11.13;2.33;;;;;;;;;;5030052;28;20126;-43
2022/02/08 22:49:16;;;;;;;10.80;2.30;;;;;;;;;;5024500;28;20037;-44
2022/02/08 22:51:43;;;;;;;13.73;2.60;;;;;;;;;;5019421;28;20021;-44
2022/02/08 22:54:10;;;;;;;8.25;2.22;;;;;;;;;;5020848;28;20029;-45
2022/02/08 22:56:37;;;;;;;8.50;2.50;;;;;;;;;;5016776;28;20774;-43
2022/02/08 22:59:06;;;;;;;9.20;2.30;;;;;;;;;;5021670;28;20045;-44
2022/02/08 23:01:33;;;;;;;9.23;2.28;;;;;;;;;;5023341;28;20543;-44
2022/02/08 23:04:00;;;;;;;6.70;2.13;;;;;;;;;;5029814;28;20172;-44
2022/02/08 23:06:29;;;;;;;7.20;2.30;;;;;;;;;;5028750;28;20037;-44
2022/02/08 23:08:56;;;;;;;10.82;2.22;;;;;;;;;;5028119;28;20467;-44
2022/02/08 23:13:55;;;;;;;18.42;3.15;;;;;;;;;;5010022;28;20061;-42
2022/02/08 23:16:44;;;;;;;13.40;2.53;;;;;;;;;;5016543;28;20045;-40
2022/02/08 23:38:27;;;;;;;9.35;2.60;;;;;;;;;;5038201;28;20449;-40
2022/02/08 23:40:54;;;;;;;8.13;1.55;;;;;;;;;;5033923;28;20025;-41
2022/02/08 23:43:21;;;;;;;8.10;1.80;;;;;;;;;;5024776;28;20124;-40